Time;durP1;ratioP1;P1;durP2;ratioP2;P2;SDS_P1;SDS_P2;PMS_P1;PMS_P2;Temp;Humidity;BMP_temperature;BMP_pressure;BME280_temperature;BME280_humidity;BME280_pressure;Samples;Min_cycle;Max_cycle;Signal;HPM_P1;HPM_P2
2023/01/21 00:02:12;;;;;;;25.47;11.40;;;;;;;-0.54;100.00;99924.13;4998638;23;21750;-70
2023/01/21 00:04:39;;;;;;;22.27;10.73;;;;;;;-0.43;100.00;99940.00;4996034;23;26035;-69
2023/01/21 00:07:06;;;;;;;25.57;11.50;;;;;;;-0.51;100.00;99944.84;5005021;23;20810;-68
2023/01/21 00:09:33;;;;;;;27.23;12.07;;;;;;;-0.54;100.00;99931.97;5033776;23;21367;-69
2023/01/21 00:12:03;;;;;;;24.17;10.93;;;;;;;-0.53;100.00;99936.25;4984844;23;21748;-69
2023/01/21 00:14:30;;;;;;;26.47;11.83;;;;;;;-0.56;100.00;99930.34;5031247;23;21280;-70
2023/01/21 00:16:57;;;;;;;28.50;12.17;;;;;;;-0.56;100.00;99925.09;5003847;23;22073;-68
2023/01/21 00:19:24;;;;;;;30.50;12.57;;;;;;;-0.57;100.00;99911.22;4986360;23;21989;-68
2023/01/21 00:21:51;;;;;;;28.07;12.03;;;;;;;-0.55;100.00;99927.66;5008771;23;20202;-70
2023/01/21 00:24:17;;;;;;;25.33;11.30;;;;;;;-0.58;100.00;99906.91;4999582;23;20206;-70
2023/01/21 00:26:44;;;;;;;25.30;12.07;;;;;;;-0.58;100.00;99917.38;5001305;23;20205;-68
2023/01/21 00:29:11;;;;;;;24.03;11.40;;;;;;;-0.55;100.00;99925.03;4992987;23;20241;-68
2023/01/21 00:31:37;;;;;;;27.47;12.10;;;;;;;-0.54;100.00;99923.25;4994810;23;20405;-69
2023/01/21 00:34:05;;;;;;;26.50;10.93;;;;;;;-0.52;100.00;99919.63;5011295;23;20210;-69
2023/01/21 00:36:32;;;;;;;25.57;11.60;;;;;;;-0.54;100.00;99913.66;5013460;23;20663;-70
2023/01/21 00:38:58;;;;;;;24.03;10.17;;;;;;;-0.52;100.00;99921.41;4995245;23;20281;-68
2023/01/21 00:41:25;;;;;;;25.60;10.73;;;;;;;-0.47;100.00;99912.38;5005493;23;20210;-67
2023/01/21 00:43:52;;;;;;;26.57;11.13;;;;;;;-0.50;100.00;99901.25;4955523;23;20638;-69
2023/01/21 00:46:18;;;;;;;24.67;9.73;;;;;;;-0.50;100.00;99899.47;4990616;23;20212;-70
2023/01/21 00:48:45;;;;;;;21.27;9.77;;;;;;;-0.47;100.00;99901.94;5005898;23;20240;-68
2023/01/21 00:51:12;;;;;;;22.23;9.80;;;;;;;-0.46;100.00;99895.75;4989051;23;20281;-68
2023/01/21 00:53:43;;;;;;;20.57;8.97;;;;;;;-0.43;100.00;99899.97;5000908;23;20338;-68
2023/01/21 00:56:10;;;;;;;19.47;8.37;;;;;;;-0.44;100.00;99893.06;5015302;23;20206;-69
2023/01/21 00:58:38;;;;;;;17.93;9.10;;;;;;;-0.37;100.00;99888.34;4997120;23;20210;-71
2023/01/21 01:01:11;;;;;;;18.23;8.30;;;;;;;-0.38;100.00;99889.25;4999302;23;20264;-71
2023/01/21 01:03:38;;;;;;;18.17;8.53;;;;;;;-0.39;100.00;99890.19;4987281;23;21663;-71
2023/01/21 01:06:08;;;;;;;17.23;8.33;;;;;;;-0.39;100.00;99884.97;4980106;23;20209;-70
2023/01/21 01:08:35;;;;;;;17.40;7.93;;;;;;;-0.36;100.00;99879.53;4987517;23;20365;-71
2023/01/21 01:11:02;;;;;;;16.83;8.07;;;;;;;-0.38;100.00;99873.56;4982055;23;20351;-70
2023/01/21 01:13:29;;;;;;;14.10;7.67;;;;;;;-0.34;100.00;99862.00;5002380;23;22893;-70
2023/01/21 01:15:57;;;;;;;15.73;7.20;;;;;;;-0.38;100.00;99870.94;4978533;23;20214;-71
2023/01/21 01:18:25;;;;;;;14.20;7.33;;;;;;;-0.36;100.00;99880.38;4992896;23;20246;-69
2023/01/21 01:20:52;;;;;;;13.37;6.90;;;;;;;-0.34;100.00;99886.38;5001498;23;20229;-70
2023/01/21 01:23:18;;;;;;;12.23;6.67;;;;;;;-0.33;100.00;99889.81;5017087;23;20405;-70
2023/01/21 01:26:00;;;;;;;13.30;6.87;;;;;;;-0.30;100.00;99889.66;5008793;23;22360;-69
2023/01/21 01:28:28;;;;;;;13.00;6.70;;;;;;;-0.31;100.00;99893.19;5013735;23;23385;-70
2023/01/21 01:30:55;;;;;;;13.47;6.60;;;;;;;-0.34;100.00;99888.97;4994212;23;20214;-70
2023/01/21 01:33:22;;;;;;;14.13;6.77;;;;;;;-0.30;100.00;99873.97;5010379;23;20202;-71
2023/01/21 01:35:49;;;;;;;15.27;6.83;;;;;;;-0.34;100.00;99862.84;4990389;23;20591;-69
2023/01/21 01:38:19;;;;;;;13.43;6.77;;;;;;;-0.41;100.00;99855.47;5008904;23;20214;-69
2023/01/21 01:40:47;;;;;;;15.73;6.73;;;;;;;-0.49;100.00;99850.69;4989162;23;21217;-69
2023/01/21 01:43:23;;;;;;;13.97;6.73;;;;;;;-0.54;100.00;99853.56;4986087;23;20209;-71
2023/01/21 01:45:50;;;;;;;11.03;6.37;;;;;;;-0.58;100.00;99852.06;5025109;23;20209;-67
2023/01/21 01:48:27;;;;;;;14.17;6.83;;;;;;;-0.64;100.00;99842.78;5004311;23;20426;-70
2023/01/21 01:50:56;;;;;;;15.67;7.20;;;;;;;-0.71;100.00;99843.22;4977083;23;20253;-69
2023/01/21 01:53:24;;;;;;;17.47;8.00;;;;;;;-0.81;100.00;99831.63;4966304;23;21600;-70
2023/01/21 01:55:50;;;;;;;12.80;6.90;;;;;;;-0.87;100.00;99823.22;4981584;23;20206;-70
2023/01/21 01:58:18;;;;;;;16.37;7.53;;;;;;;-0.90;100.00;99809.47;5002073;23;20213;-70
2023/01/21 02:00:45;;;;;;;17.70;7.70;;;;;;;-0.93;100.00;99807.88;5002530;23;20206;-70
2023/01/21 02:05:57;;;;;;;16.33;8.60;;;;;;;-1.02;100.00;99797.13;5025060;23;20632;-70
2023/01/21 02:08:25;;;;;;;15.17;7.33;;;;;;;-0.99;100.00;99789.94;4997837;23;21198;-70
2023/01/21 02:10:55;;;;;;;16.03;8.47;;;;;;;-1.00;100.00;99788.28;5030816;23;21088;-71
2023/01/21 02:13:23;;;;;;;15.50;7.90;;;;;;;-1.02;100.00;99784.91;5000220;23;20205;-68
2023/01/21 02:16:26;;;;;;;14.73;8.20;;;;;;;-1.07;100.00;99782.56;4985142;23;20293;-69
2023/01/21 02:19:02;;;;;;;18.50;8.57;;;;;;;-1.10;100.00;99771.44;4995435;23;20426;-70
2023/01/21 02:22:06;;;;;;;19.47;9.67;;;;;;;-1.09;100.00;99775.75;4999476;23;20209;-69
2023/01/21 02:24:44;;;;;;;16.13;8.27;;;;;;;-1.11;100.00;99751.50;5015822;23;20215;-69
2023/01/21 02:27:22;;;;;;;16.70;8.47;;;;;;;-1.13;100.00;99753.34;5019786;23;20209;-67
2023/01/21 02:30:08;;;;;;;17.13;8.60;;;;;;;-1.12;100.00;99763.72;4997708;23;20206;-67
2023/01/21 02:32:53;;;;;;;20.37;8.83;;;;;;;-1.09;100.00;99766.13;5007657;23;23366;-68
2023/01/21 02:35:25;;;;;;;16.20;7.80;;;;;;;-1.13;100.00;99753.34;4990710;23;20402;-71
2023/01/21 02:38:15;;;;;;;16.03;7.90;;;;;;;-1.10;100.00;99753.16;4971682;23;20233;-69
2023/01/21 02:40:53;;;;;;;18.40;8.73;;;;;;;-1.11;100.00;99759.31;4980200;23;20242;-68
2023/01/21 02:43:31;;;;;;;18.77;8.97;;;;;;;-1.14;100.00;99760.34;4991424;23;22548;-68
2023/01/21 02:46:03;;;;;;;19.17;8.70;;;;;;;-1.16;100.00;99754.34;4971526;23;23077;-68
2023/01/21 02:48:40;;;;;;;18.57;8.33;;;;;;;-1.10;100.00;99761.00;4993630;23;20376;-69
2023/01/21 02:51:06;;;;;;;19.20;8.77;;;;;;;-1.06;100.00;99754.66;5003020;23;21533;-70
2023/01/21 02:53:35;;;;;;;19.23;9.27;;;;;;;-1.13;100.00;99762.00;4978336;23;20227;-68
2023/01/21 02:56:05;;;;;;;19.07;8.60;;;;;;;-1.13;100.00;99751.56;4972741;23;20682;-68
2023/01/21 02:58:34;;;;;;;19.03;8.60;;;;;;;-1.13;100.00;99754.19;4971774;23;25921;-69
2023/01/21 03:01:28;;;;;;;17.60;7.90;;;;;;;-1.15;100.00;99752.59;5012892;23;20681;-71
2023/01/21 03:04:12;;;;;;;18.53;8.90;;;;;;;-1.12;100.00;99748.03;4985591;23;20265;-70
2023/01/21 03:07:06;;;;;;;16.77;7.80;;;;;;;-1.13;100.00;99742.91;4995737;23;21532;-71
2023/01/21 03:09:34;;;;;;;17.80;8.30;;;;;;;-1.13;100.00;99740.28;5039027;23;20263;-71
2023/01/21 03:12:12;;;;;;;17.17;8.57;;;;;;;-1.11;100.00;99735.81;4989946;23;20269;-73
2023/01/21 03:18:02;;;;;;;18.83;8.73;;;;;;;-1.13;100.00;99722.00;5019330;23;20201;-71
2023/01/21 03:20:41;;;;;;;17.33;8.13;;;;;;;-1.18;100.00;99718.84;4991422;23;23431;-71
2023/01/21 03:23:20;;;;;;;20.00;8.80;;;;;;;-1.19;100.00;99711.94;5001829;23;25325;-71
2023/01/21 03:25:48;;;;;;;20.47;9.07;;;;;;;-1.12;100.00;99708.06;4991678;23;21212;-70
2023/01/21 03:28:18;;;;;;;21.67;8.57;;;;;;;-1.13;100.00;99706.34;4998346;23;20210;-70
2023/01/21 03:30:52;;;;;;;19.23;7.90;;;;;;;-1.18;100.00;99708.41;4973443;23;20210;-70
2023/01/21 03:33:19;;;;;;;15.00;7.53;;;;;;;-1.17;100.00;99707.44;4992093;23;21706;-70
2023/01/21 03:35:48;;;;;;;17.37;8.00;;;;;;;-1.24;100.00;99682.63;5014638;23;21777;-70
2023/01/21 03:38:29;;;;;;;17.40;7.30;;;;;;;-1.23;100.00;99682.56;4996116;23;25501;-69
2023/01/21 03:41:07;;;;;;;17.17;8.00;;;;;;;-1.19;100.00;99686.69;4987511;23;20281;-69
2023/01/21 03:43:34;;;;;;;17.30;7.93;;;;;;;-1.20;100.00;99674.53;5001582;23;20410;-71
2023/01/21 03:46:23;;;;;;;17.53;8.00;;;;;;;-1.12;100.00;99676.72;5003740;23;20461;-70
2023/01/21 03:49:19;;;;;;;15.83;6.93;;;;;;;-1.18;100.00;99671.84;5005353;23;20216;-70
2023/01/21 03:51:49;;;;;;;15.40;7.50;;;;;;;-1.15;100.00;99674.28;5014697;23;21203;-69
2023/01/21 03:54:16;;;;;;;16.57;7.47;;;;;;;-1.16;100.00;99678.66;4985433;23;21351;-70
2023/01/21 03:56:43;;;;;;;15.20;7.83;;;;;;;-1.16;100.00;99675.22;4988798;23;20226;-70
2023/01/21 03:59:09;;;;;;;14.97;7.00;;;;;;;-1.16;100.00;99677.81;4992149;23;20214;-70
2023/01/21 04:01:38;;;;;;;15.33;7.40;;;;;;;-1.20;100.00;99656.25;4990233;23;20209;-71
2023/01/21 04:04:05;;;;;;;17.57;7.63;;;;;;;-1.21;100.00;99653.75;4986265;23;22074;-69
2023/01/21 04:06:32;;;;;;;17.43;8.07;;;;;;;-1.21;100.00;99651.16;4986274;23;20205;-71
2023/01/21 04:08:59;;;;;;;14.27;7.23;;;;;;;-1.20;100.00;99643.22;4998017;23;20206;-71
2023/01/21 04:11:25;;;;;;;17.67;7.67;;;;;;;-1.12;100.00;99629.72;4995157;23;21819;-69
2023/01/21 04:13:52;;;;;;;14.43;6.90;;;;;;;-1.15;100.00;99642.94;4996783;23;20238;-71
2023/01/21 04:16:18;;;;;;;12.27;6.20;;;;;;;-1.18;100.00;99628.31;4995726;23;20891;-69
2023/01/21 04:18:46;;;;;;;11.80;6.80;;;;;;;-1.20;100.00;99648.44;4990478;23;20695;-70
2023/01/21 04:21:13;;;;;;;11.43;6.03;;;;;;;-1.21;100.00;99649.38;5004716;23;20740;-70
2023/01/21 04:23:40;;;;;;;12.77;6.50;;;;;;;-1.19;100.00;99651.91;4988291;23;20977;-69
2023/01/21 04:26:06;;;;;;;14.67;6.80;;;;;;;-1.17;100.00;99653.50;4997488;23;20214;-71
2023/01/21 04:28:33;;;;;;;14.43;6.47;;;;;;;-1.18;100.00;99662.25;4992829;23;20270;-70
2023/01/21 04:31:00;;;;;;;11.60;5.90;;;;;;;-1.17;100.00;99663.94;5003940;23;20216;-70
2023/01/21 04:33:26;;;;;;;10.80;5.53;;;;;;;-1.12;100.00;99664.50;5007704;23;20210;-70
2023/01/21 04:36:00;;;;;;;9.43;4.63;;;;;;;-1.18;100.00;99666.63;5006034;23;20269;-72
2023/01/21 04:38:26;;;;;;;8.87;4.70;;;;;;;-1.23;100.00;99666.06;4981594;23;20206;-71
2023/01/21 04:40:53;;;;;;;7.00;3.83;;;;;;;-1.22;100.00;99681.59;4997342;23;20353;-70
2023/01/21 04:43:19;;;;;;;7.60;4.20;;;;;;;-1.19;100.00;99685.84;4996154;23;20339;-71
2023/01/21 04:45:46;;;;;;;7.90;4.13;;;;;;;-1.21;100.00;99677.25;5009974;23;20739;-70
2023/01/21 04:48:13;;;;;;;9.70;4.07;;;;;;;-1.18;100.00;99672.69;5004368;23;23354;-71
2023/01/21 04:50:40;;;;;;;5.77;3.43;;;;;;;-1.20;100.00;99673.69;4986313;23;20206;-71
2023/01/21 04:53:06;;;;;;;4.67;2.93;;;;;;;-1.15;100.00;99682.09;4992649;23;23515;-71
2023/01/21 04:55:33;;;;;;;6.60;3.30;;;;;;;-1.22;100.00;99672.94;5006291;23;20205;-71
2023/01/21 04:57:59;;;;;;;6.47;3.00;;;;;;;-1.23;100.00;99674.72;4998460;23;22220;-73
2023/01/21 05:00:26;;;;;;;5.53;3.03;;;;;;;-1.19;100.00;99678.00;4996204;23;20266;-73
2023/01/21 05:02:52;;;;;;;5.03;2.60;;;;;;;-1.21;100.00;99672.03;4966695;23;20207;-75
2023/01/21 05:05:19;;;;;;;4.77;2.57;;;;;;;-1.20;100.00;99668.47;4991927;23;20297;-76
2023/01/21 05:07:45;;;;;;;4.10;2.40;;;;;;;-1.20;100.00;99673.69;5013050;23;20337;-73
2023/01/21 05:10:16;;;;;;;4.67;2.40;;;;;;;-1.21;100.00;99669.41;5003103;23;20210;-72
2023/01/21 05:12:43;;;;;;;4.80;2.60;;;;;;;-1.22;100.00;99675.56;4987945;23;20213;-72
2023/01/21 05:15:10;;;;;;;6.37;2.30;;;;;;;-1.27;100.00;99673.22;5010735;23;26617;-74
2023/01/21 05:17:36;;;;;;;5.60;2.70;;;;;;;-1.23;100.00;99668.66;4995921;23;20257;-71
2023/01/21 05:20:03;;;;;;;4.30;2.20;;;;;;;-1.22;100.00;99668.56;4998086;23;23105;-73
2023/01/21 05:22:30;;;;;;;4.57;2.20;;;;;;;-1.21;100.00;99670.25;5014786;23;21403;-74
2023/01/21 05:24:58;;;;;;;3.37;2.00;;;;;;;-1.24;100.00;99669.59;5016262;23;20209;-74
2023/01/21 05:27:25;;;;;;;2.83;1.60;;;;;;;-1.22;100.00;99672.94;5013283;23;20282;-74
2023/01/21 05:29:52;;;;;;;2.73;1.77;;;;;;;-1.25;100.00;99665.31;5025870;23;20245;-75
2023/01/21 05:32:18;;;;;;;3.70;1.80;;;;;;;-1.23;100.00;99663.44;4966299;23;22727;-72
2023/01/21 05:34:45;;;;;;;3.17;1.97;;;;;;;-1.24;100.00;99674.81;4991208;23;22183;-75
2023/01/21 05:37:12;;;;;;;3.30;1.77;;;;;;;-1.23;100.00;99673.88;4994996;23;20206;-74
2023/01/21 05:39:39;;;;;;;3.40;1.83;;;;;;;-1.18;100.00;99666.63;4993421;23;20209;-74
2023/01/21 05:42:06;;;;;;;3.50;1.97;;;;;;;-1.23;100.00;99666.06;4980977;23;21122;-74
2023/01/21 05:44:32;;;;;;;3.70;2.00;;;;;;;-1.19;100.00;99670.19;4995124;23;20285;-76
2023/01/21 05:46:59;;;;;;;3.10;1.80;;;;;;;-1.18;100.00;99666.63;4978588;23;20696;-74
2023/01/21 05:49:26;;;;;;;2.90;1.30;;;;;;;-1.20;100.00;99663.25;4967066;23;20217;-74
2023/01/21 05:51:52;;;;;;;3.27;1.57;;;;;;;-1.18;100.00;99664.00;4987326;23;22787;-73
2023/01/21 05:54:19;;;;;;;2.63;1.63;;;;;;;-1.19;100.00;99659.75;5005077;23;20289;-76
2023/01/21 05:56:45;;;;;;;3.03;1.87;;;;;;;-1.17;100.00;99670.91;4997477;23;20240;-73
2023/01/21 05:59:12;;;;;;;2.93;1.67;;;;;;;-1.16;100.00;99676.03;5002974;23;21852;-71
2023/01/21 06:01:38;;;;;;;3.10;1.83;;;;;;;-1.14;100.00;99673.34;5017039;23;20210;-73
2023/01/21 06:04:05;;;;;;;3.03;1.60;;;;;;;-1.19;100.00;99670.19;4995387;23;20324;-74
2023/01/21 06:06:32;;;;;;;3.60;1.90;;;;;;;-1.17;100.00;99681.34;5010019;23;20208;-74
2023/01/21 06:08:58;;;;;;;2.33;1.40;;;;;;;-1.21;100.00;99682.47;4992042;23;20596;-77
2023/01/21 06:11:25;;;;;;;2.40;1.40;;;;;;;-1.21;100.00;99688.53;4990101;23;21779;-74
2023/01/21 06:13:51;;;;;;;1.80;1.20;;;;;;;-1.19;100.00;99686.69;5019735;23;25424;-75
2023/01/21 06:16:18;;;;;;;3.00;1.30;;;;;;;-1.21;100.00;99682.47;4993574;23;21113;-73
2023/01/21 06:18:45;;;;;;;2.93;1.43;;;;;;;-1.18;100.00;99690.13;5009828;23;20222;-74
2023/01/21 06:21:11;;;;;;;3.50;1.43;;;;;;;-1.15;100.00;99671.66;4973214;23;20212;-73
2023/01/21 06:23:38;;;;;;;2.10;1.40;;;;;;;-1.14;100.00;99684.63;4999099;23;21045;-75
2023/01/21 06:26:05;;;;;;;3.03;1.67;;;;;;;-1.19;100.00;99680.63;4994698;23;20237;-72
2023/01/21 06:28:31;;;;;;;2.33;1.37;;;;;;;-1.15;100.00;99682.09;4991680;23;21176;-73
2023/01/21 06:30:58;;;;;;;3.93;1.70;;;;;;;-1.18;100.00;99682.28;5006658;23;20211;-74
2023/01/21 06:33:24;;;;;;;3.17;1.63;;;;;;;-1.22;100.00;99681.59;4993314;23;20315;-74
2023/01/21 06:35:51;;;;;;;4.07;1.93;;;;;;;-1.21;100.00;99672.88;4990093;23;20248;-73
2023/01/21 06:38:18;;;;;;;5.33;2.10;;;;;;;-1.19;100.00;99678.00;4988150;23;20206;-77
2023/01/21 06:40:44;;;;;;;3.13;1.60;;;;;;;-1.15;100.00;99676.88;4997890;23;20206;-75
2023/01/21 06:43:11;;;;;;;4.50;1.53;;;;;;;-1.14;100.00;99681.19;5008338;23;20263;-75
2023/01/21 06:45:37;;;;;;;4.17;1.73;;;;;;;-1.19;100.00;99676.22;4968405;23;20790;-75
2023/01/21 06:48:04;;;;;;;3.57;1.47;;;;;;;-1.17;100.00;99673.50;4999948;23;20738;-77
2023/01/21 06:50:31;;;;;;;2.77;1.73;;;;;;;-1.17;100.00;99682.22;5007773;23;21724;-74
2023/01/21 06:52:58;;;;;;;2.83;1.47;;;;;;;-1.18;100.00;99684.91;4991497;23;21154;-73
2023/01/21 06:55:24;;;;;;;3.93;1.67;;;;;;;-1.17;100.00;99691.78;4985544;23;20206;-73
2023/01/21 06:57:51;;;;;;;3.13;1.50;;;;;;;-1.16;100.00;99690.88;5012400;23;20287;-74
2023/01/21 07:00:18;;;;;;;4.90;1.63;;;;;;;-1.16;100.00;99691.72;4994959;23;20228;-73
2023/01/21 07:02:45;;;;;;;3.83;1.63;;;;;;;-1.17;100.00;99683.94;4990793;23;20210;-72
2023/01/21 07:05:13;;;;;;;3.70;1.97;;;;;;;-1.18;100.00;99682.28;4996595;23;20216;-73
2023/01/21 07:07:40;;;;;;;2.63;1.50;;;;;;;-1.18;100.00;99682.28;4999223;23;20205;-76
2023/01/21 07:10:08;;;;;;;5.10;2.30;;;;;;;-1.20;100.00;99679.75;4995521;23;20202;-78
2023/01/21 07:12:34;;;;;;;3.00;1.80;;;;;;;-1.18;100.00;99687.50;4989342;23;20331;-75
2023/01/21 07:15:01;;;;;;;2.97;1.77;;;;;;;-1.21;100.00;99688.53;4998656;23;21708;-76
2023/01/21 07:17:27;;;;;;;3.20;1.83;;;;;;;-1.19;100.00;99685.84;5005745;23;20632;-77
2023/01/21 07:19:54;;;;;;;3.50;1.77;;;;;;;-1.20;100.00;99689.38;4997784;23;20202;-75
2023/01/21 07:22:21;;;;;;;3.30;1.83;;;;;;;-1.21;100.00;99692.91;5000141;23;20217;-73
2023/01/21 07:24:47;;;;;;;4.30;1.80;;;;;;;-1.19;100.00;99686.69;4993753;23;20257;-70
2023/01/21 07:27:15;;;;;;;4.03;1.90;;;;;;;-1.21;100.00;99693.75;5015631;23;20624;-75
2023/01/21 07:29:41;;;;;;;2.60;1.43;;;;;;;-1.20;100.00;99689.38;5025392;23;20285;-74
2023/01/21 07:32:08;;;;;;;3.20;1.80;;;;;;;-1.19;100.00;99683.22;5017565;23;20296;-77
2023/01/21 07:34:34;;;;;;;3.83;1.90;;;;;;;-1.17;100.00;99678.72;5011284;23;20522;-75
2023/01/21 07:37:01;;;;;;;4.83;1.80;;;;;;;-1.18;100.00;99682.28;5008740;23;20209;-68
2023/01/21 07:39:28;;;;;;;2.77;1.50;;;;;;;-1.20;100.00;99684.16;5001220;23;25433;-68
2023/01/21 07:41:55;;;;;;;2.57;1.63;;;;;;;-1.18;100.00;99677.06;5011394;23;20940;-70
2023/01/21 07:44:21;;;;;;;2.73;1.70;;;;;;;-1.19;100.00;99683.22;4999079;23;20210;-67
2023/01/21 07:46:48;;;;;;;3.00;1.80;;;;;;;-1.16;100.00;99680.44;4996190;23;20389;-69
2023/01/21 07:49:17;;;;;;;3.50;1.50;;;;;;;-1.14;100.00;99689.03;5006835;23;20217;-66
2023/01/21 07:51:44;;;;;;;3.37;1.80;;;;;;;-1.20;100.00;99682.38;5024545;23;20205;-67
2023/01/21 07:54:11;;;;;;;2.87;1.43;;;;;;;-1.17;100.00;99676.13;5030186;23;20213;-67
2023/01/21 07:56:38;;;;;;;2.50;1.60;;;;;;;-1.09;100.00;99684.38;5008766;23;20209;-71
2023/01/21 07:59:05;;;;;;;4.97;1.73;;;;;;;-1.08;100.00;99683.41;4989951;23;20440;-68
2023/01/21 08:01:32;;;;;;;3.80;1.80;;;;;;;-1.11;100.00;99684.44;4982215;23;20209;-66
2023/01/21 08:03:58;;;;;;;2.37;1.43;;;;;;;-1.13;100.00;99675.03;5041695;23;22468;-65
2023/01/21 08:06:25;;;;;;;3.67;2.10;;;;;;;-1.14;100.00;99682.03;5001198;23;20212;-68
2023/01/21 08:08:52;;;;;;;3.37;1.80;;;;;;;-1.15;100.00;99688.19;5012036;23;22088;-68
2023/01/21 08:11:18;;;;;;;4.77;2.27;;;;;;;-1.13;100.00;99681.06;4982661;23;20552;-68
2023/01/21 08:13:45;;;;;;;4.33;1.97;;;;;;;-1.11;100.00;99683.59;4997653;23;22023;-66
2023/01/21 08:16:12;;;;;;;5.37;1.87;;;;;;;-1.08;100.00;99681.69;5002900;23;20281;-66
2023/01/21 08:18:41;;;;;;;4.33;1.97;;;;;;;-1.09;100.00;99697.41;4988548;23;21146;-66
2023/01/21 08:21:08;;;;;;;4.73;2.43;;;;;;;-1.04;100.00;99677.09;4983656;23;20206;-67
2023/01/21 08:23:35;;;;;;;3.90;2.00;;;;;;;-1.05;100.00;99688.47;5006096;23;23073;-70
2023/01/21 08:26:03;;;;;;;4.80;2.60;;;;;;;-1.04;100.00;99695.38;4970723;23;20993;-67
2023/01/21 08:28:29;;;;;;;3.73;2.10;;;;;;;-1.04;100.00;99700.59;4990198;23;20205;-65
2023/01/21 08:31:14;;;;;;;4.77;2.20;;;;;;;-1.06;100.00;99705.06;5011970;23;20385;-65
2023/01/21 08:33:41;;;;;;;5.20;2.33;;;;;;;-1.02;100.00;99703.13;5003625;23;22495;-65
2023/01/21 08:36:08;;;;;;;4.20;2.30;;;;;;;-1.03;100.00;99701.44;5013803;23;22077;-66
2023/01/21 08:38:35;;;;;;;6.03;2.73;;;;;;;-1.04;100.00;99711.03;5003183;23;20269;-62
2023/01/21 08:41:02;;;;;;;4.77;1.97;;;;;;;-0.97;100.00;99714.97;5002758;23;22323;-71
2023/01/21 08:43:29;;;;;;;7.30;3.37;;;;;;;-0.96;100.00;99716.66;5004285;23;20335;-69
2023/01/21 08:45:57;;;;;;;5.57;2.60;;;;;;;-0.97;100.00;99721.97;4995606;23;20205;-68
2023/01/21 08:48:24;;;;;;;4.27;2.20;;;;;;;-0.99;100.00;99727.28;4969119;23;20807;-69
2023/01/21 08:50:50;;;;;;;6.90;2.50;;;;;;;-0.94;100.00;99706.94;5015303;23;20202;-66
2023/01/21 08:53:17;;;;;;;5.23;2.30;;;;;;;-0.93;100.00;99719.09;4983681;23;20218;-69
2023/01/21 08:55:43;;;;;;;4.50;2.47;;;;;;;-0.95;100.00;99710.50;4992952;23;21518;-66
2023/01/21 08:58:10;;;;;;;7.87;2.30;;;;;;;-0.91;100.00;99719.84;4995876;23;22601;-70
2023/01/21 09:00:37;;;;;;;5.80;2.30;;;;;;;-0.87;100.00;99723.97;5012116;23;20209;-66
2023/01/21 09:03:03;;;;;;;4.83;2.57;;;;;;;-0.90;100.00;99718.91;4985192;23;20659;-65
2023/01/21 09:05:30;;;;;;;5.67;2.30;;;;;;;-0.88;100.00;99724.06;5002967;23;25055;-66
2023/01/21 09:07:57;;;;;;;4.83;2.73;;;;;;;-0.90;100.00;99726.75;5000543;23;20761;-63
2023/01/21 09:13:09;;;;;;;3.97;2.43;;;;;;;-0.87;100.00;99729.19;4993432;23;20273;-67
2023/01/21 09:15:42;;;;;;;5.73;3.07;;;;;;;-0.83;100.00;99724.63;4998487;23;20220;-66
2023/01/21 09:18:09;;;;;;;7.07;3.23;;;;;;;-0.88;100.00;99711.81;4991428;23;20419;-66
2023/01/21 09:20:36;;;;;;;7.83;2.80;;;;;;;-0.89;100.00;99733.66;4975177;23;21426;-67
2023/01/21 09:23:22;;;;;;;7.37;2.80;;;;;;;-0.93;100.00;99734.75;5010336;23;20205;-66
2023/01/21 09:25:54;;;;;;;6.33;3.60;;;;;;;-0.89;100.00;99730.19;4993230;23;20258;-63
2023/01/21 09:28:21;;;;;;;6.03;2.73;;;;;;;-0.89;100.00;99736.28;5012701;23;20253;-64
2023/01/21 09:30:48;;;;;;;7.10;3.47;;;;;;;-0.88;100.00;99735.34;5004584;23;20271;-63
2023/01/21 09:33:15;;;;;;;10.77;3.90;;;;;;;-0.91;100.00;99742.53;4984396;23;20273;-63
2023/01/21 09:35:41;;;;;;;7.50;3.63;;;;;;;-0.95;100.00;99741.84;5024256;23;25438;-66
2023/01/21 09:38:08;;;;;;;8.03;4.17;;;;;;;-0.94;100.00;99743.50;4996769;23;20218;-67
2023/01/21 09:40:35;;;;;;;9.33;4.73;;;;;;;-0.89;100.00;99735.41;4985459;23;20251;-64
2023/01/21 09:43:08;;;;;;;13.13;5.27;;;;;;;-0.89;100.00;99738.88;5001351;23;22163;-66
2023/01/21 09:45:35;;;;;;;13.23;4.97;;;;;;;-0.87;100.00;99739.63;5018011;23;20215;-65
2023/01/21 09:48:03;;;;;;;13.13;6.77;;;;;;;-0.86;100.00;99745.69;5004707;23;20210;-63
2023/01/21 09:50:31;;;;;;;19.13;8.00;;;;;;;-0.88;100.00;99745.78;5008926;23;20220;-65
2023/01/21 09:53:05;;;;;;;15.03;7.53;;;;;;;-0.85;100.00;99742.16;5028154;23;20396;-67
2023/01/21 09:55:36;;;;;;;14.47;8.43;;;;;;;-0.87;100.00;99757.94;4972365;23;21707;-61
2023/01/21 09:58:12;;;;;;;18.57;9.27;;;;;;;-0.85;100.00;99749.97;4994778;23;22508;-64
2023/01/21 10:00:48;;;;;;;18.20;9.43;;;;;;;-0.77;100.00;99762.59;5013483;23;20200;-66
2023/01/21 10:03:28;;;;;;;21.27;10.77;;;;;;;-0.79;100.00;99751.41;5000668;23;20201;-65
2023/01/21 10:06:22;;;;;;;21.60;9.90;;;;;;;-0.85;100.00;99748.19;4988748;23;20221;-65
2023/01/21 10:09:10;;;;;;;23.10;10.30;;;;;;;-0.81;100.00;99753.28;5008625;23;20234;-66
2023/01/21 10:12:00;;;;;;;19.00;8.97;;;;;;;-0.80;100.00;99754.94;5009447;23;20206;-66
2023/01/21 10:14:45;;;;;;;15.67;8.33;;;;;;;-0.79;100.00;99759.25;5005404;23;20427;-66
2023/01/21 10:17:32;;;;;;;17.70;7.97;;;;;;;-0.79;100.00;99762.69;4998361;23;20455;-67
2023/01/21 10:20:27;;;;;;;16.13;7.70;;;;;;;-0.72;100.00;99760.56;5005746;23;20209;-64
2023/01/21 10:22:58;;;;;;;16.57;7.93;;;;;;;-0.76;100.00;99757.28;5022811;23;20306;-66
2023/01/21 10:25:31;;;;;;;19.63;7.27;;;;;;;-0.75;100.00;99758.97;4966307;23;20211;-67
2023/01/21 10:28:11;;;;;;;16.00;8.23;;;;;;;-0.72;100.00;99755.34;5038935;23;20348;-65
2023/01/21 10:30:42;;;;;;;17.83;8.10;;;;;;;-0.72;100.00;99769.25;4987045;23;20206;-69
2023/01/21 10:33:16;;;;;;;15.90;7.83;;;;;;;-0.68;100.00;99767.28;5024726;23;20269;-69
2023/01/21 10:35:52;;;;;;;15.87;7.33;;;;;;;-0.67;100.00;99769.81;5007216;23;20208;-66
2023/01/21 10:38:30;;;;;;;16.97;7.60;;;;;;;-0.67;100.00;99769.81;5019681;23;20209;-65
2023/01/21 10:41:02;;;;;;;21.67;7.63;;;;;;;-0.66;100.00;99775.88;5030259;23;20240;-70
2023/01/21 10:43:40;;;;;;;20.93;7.83;;;;;;;-0.67;100.00;99777.66;4998548;23;20953;-65
2023/01/21 10:46:17;;;;;;;22.80;8.50;;;;;;;-0.67;100.00;99780.25;5030241;23;21573;-67
2023/01/21 10:49:01;;;;;;;24.27;8.97;;;;;;;-0.66;100.00;99779.34;5003800;23;21048;-70
2023/01/21 10:51:45;;;;;;;21.07;8.30;;;;;;;-0.66;100.00;99787.19;4997369;23;22080;-69
2023/01/21 10:54:20;;;;;;;24.37;8.90;;;;;;;-0.64;100.00;99779.22;4991626;23;20408;-71
2023/01/21 10:57:00;;;;;;;22.07;9.70;;;;;;;-0.61;100.00;99781.66;5009424;23;20206;-66
2023/01/21 10:59:29;;;;;;;20.83;8.73;;;;;;;-0.60;100.00;99793.81;5015170;23;20431;-70
2023/01/21 11:02:12;;;;;;;23.33;9.43;;;;;;;-0.55;100.00;99789.16;5056805;23;20204;-68
2023/01/21 11:04:43;;;;;;;29.30;9.90;;;;;;;-0.47;100.00;99799.13;5001262;23;20205;-66
2023/01/21 11:07:12;;;;;;;22.77;9.80;;;;;;;-0.41;100.00;99798.78;5017486;23;20205;-70
2023/01/21 11:09:42;;;;;;;26.23;11.47;;;;;;;-0.37;100.00;99802.06;5003678;23;25831;-73
2023/01/21 11:12:11;;;;;;;25.53;10.77;;;;;;;-0.41;100.00;99803.19;5001877;23;20217;-70
2023/01/21 11:14:37;;;;;;;28.10;10.60;;;;;;;-0.45;100.00;99805.94;4966123;23;20382;-72
2023/01/21 11:17:05;;;;;;;24.13;11.23;;;;;;;-0.41;100.00;99816.25;4981219;23;20205;-69
2023/01/21 11:19:32;;;;;;;23.57;10.33;;;;;;;-0.39;100.00;99809.16;5009979;23;20289;-66
2023/01/21 11:22:01;;;;;;;27.50;10.97;;;;;;;-0.34;100.00;99812.34;5020765;23;20210;-70
2023/01/21 11:24:28;;;;;;;32.20;11.47;;;;;;;-0.32;100.00;99824.38;4992212;23;20314;-69
2023/01/21 11:26:58;;;;;;;31.40;11.73;;;;;;;-0.37;100.00;99822.97;5026893;23;20874;-73
2023/01/21 11:29:26;;;;;;;34.23;12.60;;;;;;;-0.29;100.00;99818.13;4982423;23;20221;-67
2023/01/21 11:32:04;;;;;;;32.70;11.90;;;;;;;-0.28;100.00;99822.41;5029371;23;20727;-70
2023/01/21 11:34:31;;;;;;;37.77;13.57;;;;;;;-0.34;100.00;99828.03;5013104;23;20217;-72
2023/01/21 11:37:00;;;;;;;39.43;15.13;;;;;;;-0.35;100.00;99819.34;5012906;23;20343;-69
2023/01/21 11:39:28;;;;;;;37.63;14.40;;;;;;;-0.26;100.00;99823.16;4978702;23;22060;-76
2023/01/21 11:41:57;;;;;;;33.87;14.37;;;;;;;-0.24;100.00;99824.75;5047733;23;21448;-71